createdAt,value
2023-05-14T00:01:47.703Z,35.45
2023-05-14T00:04:49.824Z,43.22
2023-05-14T00:07:51.863Z,35.85
2023-05-14T00:10:53.852Z,32.92
2023-05-14T00:13:55.856Z,34.55
2023-05-14T00:16:58.383Z,35.33
2023-05-14T00:20:00.594Z,36.08
2023-05-14T00:23:02.708Z,33.50
2023-05-14T00:26:04.829Z,29.25
2023-05-14T00:29:06.864Z,33.95
2023-05-14T00:32:08.942Z,33.95
2023-05-14T00:35:10.974Z,31.27
2023-05-14T00:38:17.126Z,34.13
2023-05-14T00:41:19.202Z,30.02
2023-05-14T00:44:21.283Z,31.75
2023-05-14T00:47:23.490Z,30.00
2023-05-14T00:50:26.199Z,28.88
2023-05-14T00:53:29.079Z,30.98
2023-05-14T00:56:31.652Z,31.48
2023-05-14T00:59:34.641Z,28.92
2023-05-14T01:02:36.741Z,28.73
2023-05-14T01:06:00.924Z,30.80
2023-05-14T01:09:22.772Z,30.95
2023-05-14T01:12:37.840Z,29.73
2023-05-14T01:15:41.472Z,31.15
2023-05-14T01:18:46.290Z,29.55
2023-05-14T01:21:48.275Z,31.10
2023-05-14T01:24:50.790Z,30.60
2023-05-14T01:28:06.700Z,30.73
2023-05-14T01:31:14.822Z,30.50
2023-05-14T01:34:22.754Z,28.00
2023-05-14T01:37:27.130Z,27.25
2023-05-14T01:40:31.803Z,27.30
2023-05-14T01:43:34.690Z,29.25
2023-05-14T01:46:36.919Z,31.73
2023-05-14T01:49:39.030Z,28.00
2023-05-14T01:52:41.929Z,27.83
2023-05-14T01:55:44.008Z,31.45
2023-05-14T01:58:46.105Z,32.35
2023-05-14T02:01:48.200Z,28.50
2023-05-14T02:04:50.391Z,29.42
2023-05-14T02:07:52.440Z,31.95
2023-05-14T02:10:54.481Z,31.88
2023-05-14T02:13:56.568Z,30.45
2023-05-14T02:16:58.643Z,33.15
2023-05-14T02:20:00.838Z,29.15
2023-05-14T02:23:02.884Z,26.58
2023-05-14T02:26:05.082Z,31.67
2023-05-14T02:29:07.103Z,31.98
2023-05-14T02:32:09.216Z,27.27
2023-05-14T02:35:11.345Z,30.25
2023-05-14T02:38:13.420Z,28.17
2023-05-14T02:41:15.413Z,25.83
2023-05-14T02:44:17.499Z,28.50
2023-05-14T02:47:19.607Z,27.23
2023-05-14T02:50:21.832Z,26.90
2023-05-14T02:53:24.039Z,33.17
2023-05-14T02:56:26.559Z,27.45
2023-05-14T02:59:28.652Z,27.67
2023-05-14T03:02:31.165Z,28.15
2023-05-14T03:05:33.649Z,29.08
2023-05-14T03:08:35.829Z,27.30
2023-05-14T03:11:37.901Z,27.23
2023-05-14T03:14:40.072Z,26.65
2023-05-14T03:17:42.143Z,26.60
2023-05-14T03:20:44.334Z,27.70
2023-05-14T03:23:46.394Z,27.40
2023-05-14T03:26:48.470Z,25.73
2023-05-14T03:29:50.436Z,28.38
2023-05-14T03:32:53.046Z,28.30
2023-05-14T03:35:55.093Z,30.35
2023-05-14T03:38:57.116Z,28.95
2023-05-14T03:41:59.223Z,27.60
2023-05-14T03:45:01.300Z,31.65
2023-05-14T03:48:03.603Z,30.20
2023-05-14T03:51:05.874Z,28.90
2023-05-14T03:54:08.184Z,29.17
2023-05-14T03:57:10.341Z,30.63
2023-05-14T04:00:12.925Z,27.83
2023-05-14T04:03:15.091Z,31.13
2023-05-14T04:06:17.140Z,30.40
2023-05-14T04:09:19.141Z,31.95
2023-05-14T04:12:21.200Z,30.02
2023-05-14T04:15:23.364Z,28.08
2023-05-14T04:18:25.795Z,28.42
2023-05-14T04:21:27.887Z,27.83
2023-05-14T04:24:29.934Z,30.77
2023-05-14T04:27:34.157Z,28.23
2023-05-14T04:30:36.252Z,29.67
2023-05-14T04:33:38.288Z,29.50
2023-05-14T04:36:40.367Z,28.15
2023-05-14T04:39:42.624Z,27.42
2023-05-14T04:42:44.919Z,26.23
2023-05-14T04:45:46.963Z,30.52
2023-05-14T04:48:50.375Z,28.40
2023-05-14T04:51:52.557Z,27.83
2023-05-14T04:54:54.842Z,26.60
2023-05-14T04:57:57.063Z,28.98
2023-05-14T05:00:59.794Z,24.48
2023-05-14T05:04:02.302Z,25.55
2023-05-14T05:07:05.792Z,24.92
2023-05-14T05:10:08.590Z,24.60
2023-05-14T05:13:10.678Z,23.98
2023-05-14T05:16:13.010Z,24.70
2023-05-14T05:19:15.181Z,27.35
2023-05-14T05:22:17.483Z,24.15
2023-05-14T05:25:19.553Z,25.70
2023-05-14T05:28:21.525Z,23.98
2023-05-14T05:31:23.698Z,24.55
2023-05-14T05:34:25.830Z,25.63
2023-05-14T05:37:27.844Z,26.23
2023-05-14T05:40:30.188Z,24.25
2023-05-14T05:43:33.632Z,26.20
2023-05-14T05:46:35.673Z,22.67
2023-05-14T05:49:37.795Z,24.98
2023-05-14T05:52:39.865Z,22.88
2023-05-14T05:55:42.232Z,23.38
2023-05-14T05:58:44.209Z,23.40
2023-05-14T06:01:46.182Z,24.33
2023-05-14T06:04:48.543Z,23.00
2023-05-14T06:07:50.566Z,24.00
2023-05-14T06:10:52.832Z,25.02
2023-05-14T06:13:54.977Z,22.38
2023-05-14T06:16:57.518Z,24.65
2023-05-14T06:19:59.653Z,21.23
2023-05-14T06:23:01.709Z,20.45
2023-05-14T06:26:03.918Z,21.15
2023-05-14T06:29:06.151Z,22.05
2023-05-14T06:32:08.862Z,20.70
2023-05-14T06:35:11.143Z,19.85
2023-05-14T06:38:13.156Z,22.40
2023-05-14T06:41:15.222Z,24.90
2023-05-14T06:44:19.373Z,19.85
2023-05-14T06:47:21.564Z,19.02
2023-05-14T06:50:24.077Z,18.98
2023-05-14T06:53:26.381Z,18.52
2023-05-14T06:56:28.373Z,16.98
2023-05-14T06:59:30.566Z,17.48
2023-05-14T07:02:32.725Z,19.00
2023-05-14T07:05:34.772Z,17.73
2023-05-14T07:08:36.868Z,18.88
2023-05-14T07:11:39.019Z,17.58
2023-05-14T07:14:41.155Z,17.75
2023-05-14T07:17:43.259Z,17.50
2023-05-14T07:20:45.445Z,17.80
2023-05-14T07:23:47.565Z,16.33
2023-05-14T07:26:49.780Z,17.13
2023-05-14T07:29:51.811Z,17.00
2023-05-14T07:32:53.987Z,16.35
2023-05-14T07:35:56.152Z,16.23
2023-05-14T07:38:58.269Z,14.80
2023-05-14T07:42:01.243Z,14.25
2023-05-14T07:45:04.044Z,14.95
2023-05-14T07:48:06.833Z,13.10
2023-05-14T07:51:08.964Z,16.23
2023-05-14T07:54:11.509Z,14.45
2023-05-14T07:57:13.558Z,14.68
2023-05-14T08:00:16.812Z,12.88
2023-05-14T08:03:18.960Z,13.05
2023-05-14T08:06:21.949Z,13.82
2023-05-14T08:09:24.287Z,13.63
2023-05-14T08:12:26.900Z,13.23
2023-05-14T08:15:28.941Z,15.45
2023-05-14T08:18:31.021Z,13.63
2023-05-14T08:21:33.159Z,16.40
2023-05-14T08:24:35.396Z,13.82
2023-05-14T08:27:37.447Z,17.38
2023-05-14T08:30:39.682Z,13.60
2023-05-14T08:33:41.862Z,17.92
2023-05-14T08:36:43.938Z,14.82
2023-05-14T08:39:45.946Z,14.05
2023-05-14T08:42:48.536Z,14.95
2023-05-14T08:45:57.735Z,16.25
2023-05-14T08:49:47.454Z,15.75
2023-05-14T08:52:49.593Z,15.77
2023-05-14T08:55:52.825Z,16.65
2023-05-14T08:58:54.878Z,17.30
2023-05-14T09:02:01.084Z,17.08
2023-05-14T09:05:04.139Z,17.17
2023-05-14T09:08:06.592Z,20.85
2023-05-14T09:11:08.939Z,18.33
2023-05-14T09:14:11.049Z,18.77
2023-05-14T09:17:13.455Z,20.95
2023-05-14T09:20:15.711Z,17.88
2023-05-14T09:23:17.735Z,18.33
2023-05-14T09:26:26.570Z,19.63
2023-05-14T09:29:29.910Z,21.52
2023-05-14T09:32:44.237Z,20.20
2023-05-14T09:35:48.228Z,23.73
2023-05-14T09:38:50.509Z,22.30
2023-05-14T09:41:52.998Z,22.65
2023-05-14T09:44:55.017Z,23.83
2023-05-14T09:48:00.601Z,31.90
2023-05-14T09:51:04.545Z,23.95
2023-05-14T09:54:07.993Z,25.05
2023-05-14T09:57:10.051Z,26.60
2023-05-14T10:00:12.889Z,23.98
2023-05-14T10:03:17.987Z,25.55
2023-05-14T10:06:30.662Z,24.00
2023-05-14T10:09:32.768Z,24.15
2023-05-14T10:12:39.083Z,22.35
2023-05-14T10:15:47.909Z,26.20
2023-05-14T10:18:57.141Z,23.27
2023-05-14T10:25:10.682Z,27.58
2023-05-14T10:28:12.815Z,25.42
2023-05-14T10:31:14.913Z,28.13
2023-05-14T10:34:37.701Z,26.83
2023-05-14T10:37:39.776Z,22.30
2023-05-14T10:40:41.886Z,22.55
2023-05-14T10:43:44.601Z,24.38
2023-05-14T10:46:46.716Z,23.75
2023-05-14T10:49:49.566Z,24.15
2023-05-14T10:52:52.261Z,22.45
2023-05-14T10:55:55.461Z,22.13
2023-05-14T10:58:59.997Z,21.38
2023-05-14T11:02:05.645Z,22.10
2023-05-14T11:05:10.720Z,19.65
2023-05-14T11:08:13.540Z,23.92
2023-05-14T11:11:15.692Z,20.83
2023-05-14T11:14:19.452Z,21.33
2023-05-14T11:17:21.868Z,22.23
2023-05-14T11:20:24.174Z,18.83
2023-05-14T11:23:27.063Z,19.17
2023-05-14T11:26:29.201Z,21.40
2023-05-14T11:29:31.391Z,18.48
2023-05-14T11:32:33.966Z,18.88
2023-05-14T11:35:36.990Z,16.30
2023-05-14T11:38:49.132Z,15.23
2023-05-14T11:41:51.265Z,17.00
2023-05-14T11:44:56.691Z,16.63
2023-05-14T11:47:58.849Z,15.43
2023-05-14T11:51:00.901Z,15.20
2023-05-14T11:54:04.074Z,15.82
2023-05-14T11:57:11.701Z,15.38
2023-05-14T12:00:16.880Z,15.20
2023-05-14T12:03:25.684Z,16.02
2023-05-14T12:06:32.407Z,16.77
2023-05-14T12:09:38.988Z,15.23
2023-05-14T12:12:41.021Z,14.98
2023-05-14T12:15:47.077Z,15.73
2023-05-14T12:18:49.231Z,13.23
2023-05-14T12:21:51.438Z,13.45
2023-05-14T12:24:58.550Z,12.95
2023-05-14T12:28:00.611Z,14.15
2023-05-14T12:31:03.627Z,13.85
2023-05-14T12:34:05.829Z,12.40
2023-05-14T12:37:07.841Z,12.23
2023-05-14T12:40:10.299Z,11.98
2023-05-14T12:43:12.382Z,12.20
2023-05-14T12:46:14.870Z,13.13
2023-05-14T12:49:16.936Z,14.77
2023-05-14T12:52:25.968Z,11.85
2023-05-14T12:55:38.659Z,11.55
2023-05-14T12:58:40.956Z,9.10
2023-05-14T13:01:43.101Z,11.07
2023-05-14T13:04:45.801Z,10.85
2023-05-14T13:07:47.909Z,8.60
2023-05-14T13:10:49.911Z,8.05
2023-05-14T13:13:51.942Z,9.30
2023-05-14T13:16:54.188Z,8.38
2023-05-14T13:19:56.290Z,12.23
2023-05-14T13:22:58.377Z,8.95
2023-05-14T13:26:00.582Z,8.30
2023-05-14T13:29:02.664Z,8.77
2023-05-14T13:32:05.057Z,7.68
2023-05-14T13:35:07.863Z,6.70
2023-05-14T13:38:09.948Z,7.60
2023-05-14T13:41:12.214Z,8.07
2023-05-14T13:44:14.300Z,7.35
2023-05-14T13:47:16.417Z,7.47
2023-05-14T13:50:18.598Z,7.50
2023-05-14T13:53:21.941Z,7.88
2023-05-14T13:56:23.897Z,8.40
2023-05-14T13:59:25.929Z,10.90
2023-05-14T14:02:28.006Z,8.27
2023-05-14T14:05:30.205Z,8.70
2023-05-14T14:08:32.244Z,7.70
2023-05-14T14:11:34.459Z,7.07
2023-05-14T14:14:36.479Z,8.02
2023-05-14T14:17:39.275Z,6.30
2023-05-14T14:20:41.467Z,7.03
2023-05-14T14:23:46.788Z,5.78
2023-05-14T14:26:48.829Z,5.88
2023-05-14T14:29:50.876Z,5.72
2023-05-14T14:32:53.133Z,6.07
2023-05-14T14:35:55.374Z,6.75
2023-05-14T14:38:57.413Z,6.05
2023-05-14T14:41:59.408Z,8.20
2023-05-14T14:45:01.510Z,6.78
2023-05-14T14:48:39.014Z,7.75
2023-05-14T14:51:41.166Z,6.25
2023-05-14T14:54:43.278Z,5.20
2023-05-14T14:57:45.314Z,7.75
2023-05-14T15:00:47.918Z,6.50
2023-05-14T15:03:50.114Z,5.95
2023-05-14T15:06:52.164Z,6.72
2023-05-14T15:09:54.171Z,7.07
2023-05-14T15:12:58.957Z,5.57
2023-05-14T15:16:04.055Z,6.00
2023-05-14T15:19:06.099Z,5.88
2023-05-14T15:22:08.337Z,7.57
2023-05-14T15:25:10.564Z,6.05
2023-05-14T15:28:12.663Z,5.88
2023-05-14T15:31:14.758Z,8.38
2023-05-14T15:34:16.924Z,7.72
2023-05-14T15:37:18.884Z,5.70
2023-05-14T15:40:21.049Z,5.13
2023-05-14T15:43:23.199Z,6.68
2023-05-14T15:46:25.853Z,5.40
2023-05-14T15:49:27.851Z,5.65
2023-05-14T15:52:29.939Z,5.68
2023-05-14T15:55:32.008Z,5.30
2023-05-14T15:58:34.105Z,5.70
2023-05-14T16:01:36.173Z,5.90
2023-05-14T16:04:38.507Z,8.40
2023-05-14T16:07:40.568Z,6.03
2023-05-14T16:10:42.528Z,5.90
2023-05-14T16:13:44.488Z,6.15
2023-05-14T16:16:46.630Z,6.10
2023-05-14T16:19:48.799Z,9.82
2023-05-14T16:22:50.827Z,7.30
2023-05-14T16:25:52.883Z,9.32
2023-05-14T16:28:54.883Z,8.85
2023-05-14T16:31:58.512Z,6.97
2023-05-14T16:35:02.515Z,5.95
2023-05-14T16:38:04.683Z,7.20
2023-05-14T16:41:07.181Z,10.30
2023-05-14T16:44:09.268Z,9.55
2023-05-14T16:47:11.326Z,8.80
2023-05-14T16:50:13.417Z,8.45
2023-05-14T16:53:15.703Z,14.48
2023-05-14T16:56:17.871Z,9.70
2023-05-14T16:59:19.892Z,9.35
2023-05-14T17:02:21.962Z,8.40
2023-05-14T17:05:24.530Z,9.93
2023-05-14T17:08:31.931Z,12.73
2023-05-14T17:11:34.093Z,8.85
2023-05-14T17:14:36.221Z,11.05
2023-05-14T17:17:38.561Z,17.02
2023-05-14T17:20:40.616Z,13.38
2023-05-14T17:23:42.645Z,13.15
2023-05-14T17:26:44.738Z,16.30
2023-05-14T17:29:46.862Z,11.55
2023-05-14T17:32:50.922Z,13.68
2023-05-14T17:35:53.388Z,15.60
2023-05-14T17:38:55.540Z,16.98
2023-05-14T17:41:57.913Z,13.90
2023-05-14T17:45:00.058Z,18.52
2023-05-14T17:48:02.220Z,13.35
2023-05-14T17:51:04.572Z,13.65
2023-05-14T17:54:06.723Z,15.70
2023-05-14T17:57:09.058Z,19.25
2023-05-14T18:00:11.840Z,13.77
2023-05-14T18:03:15.137Z,16.65
2023-05-14T18:06:17.894Z,17.45
2023-05-14T18:09:22.250Z,18.33
2023-05-14T18:12:26.643Z,22.02
2023-05-14T18:15:31.811Z,17.13
2023-05-14T18:18:34.882Z,17.33
2023-05-14T18:21:37.237Z,17.90
2023-05-14T18:24:40.196Z,16.80
2023-05-14T18:27:45.035Z,18.30
2023-05-14T18:30:49.279Z,21.42
2023-05-14T18:33:53.809Z,20.20
2023-05-14T18:36:58.516Z,23.65
2023-05-14T18:40:07.097Z,23.25
2023-05-14T18:43:13.389Z,25.65
2023-05-14T18:46:16.894Z,22.58
2023-05-14T18:49:20.430Z,22.73
2023-05-14T18:52:24.018Z,20.90
2023-05-14T18:55:28.714Z,20.77
2023-05-14T18:58:33.409Z,25.48
2023-05-14T19:01:37.512Z,26.05
2023-05-14T19:04:51.166Z,25.50
2023-05-14T19:07:56.514Z,32.80
2023-05-14T19:11:00.195Z,27.83
2023-05-14T19:14:03.245Z,26.65
2023-05-14T19:17:06.381Z,30.25
2023-05-14T19:20:12.241Z,28.30
2023-05-14T19:23:16.043Z,25.92
2023-05-14T19:26:19.536Z,23.55
2023-05-14T19:29:22.916Z,28.10
2023-05-14T19:32:27.374Z,32.95
2023-05-14T19:35:30.733Z,28.08
2023-05-14T19:38:33.996Z,28.10
2023-05-14T19:41:36.932Z,30.15
2023-05-14T19:44:39.874Z,28.63
2023-05-14T19:47:43.166Z,29.10
2023-05-14T19:50:47.430Z,31.15
2023-05-14T19:53:50.247Z,37.15
2023-05-14T19:56:53.373Z,32.50
2023-05-14T19:59:56.052Z,35.95
2023-05-14T20:02:59.876Z,41.28
2023-05-14T20:06:02.334Z,42.80
2023-05-14T20:09:05.992Z,46.00
2023-05-14T20:12:08.838Z,31.85
2023-05-14T20:15:11.129Z,36.80
2023-05-14T20:18:13.720Z,35.92
2023-05-14T20:21:15.773Z,34.75
2023-05-14T20:24:18.221Z,31.77
2023-05-14T20:27:20.339Z,33.92
2023-05-14T20:30:22.492Z,39.03
2023-05-14T20:33:25.217Z,32.38
2023-05-14T20:36:29.729Z,39.15
2023-05-14T20:39:32.368Z,34.10
2023-05-14T20:42:36.397Z,37.47
2023-05-14T20:45:39.174Z,35.55
2023-05-14T20:48:41.221Z,41.53
2023-05-14T20:51:43.298Z,40.72
2023-05-14T20:54:45.292Z,34.95
2023-05-14T20:57:47.431Z,39.05
2023-05-14T21:00:49.552Z,37.03
2023-05-14T21:03:51.793Z,38.80
2023-05-14T21:06:54.108Z,37.08
2023-05-14T21:09:56.132Z,40.50
2023-05-14T21:12:58.209Z,38.42
2023-05-14T21:16:00.436Z,36.38
2023-05-14T21:19:02.895Z,35.33
2023-05-14T21:22:05.348Z,36.85
2023-05-14T21:25:07.757Z,37.70
2023-05-14T21:28:10.003Z,43.08
2023-05-14T21:31:12.088Z,41.42
2023-05-14T21:34:14.289Z,37.70
2023-05-14T21:37:16.310Z,42.35
2023-05-14T21:40:18.382Z,35.25
2023-05-14T21:43:20.444Z,37.38
2023-05-14T21:46:22.467Z,44.15
2023-05-14T21:49:24.522Z,35.20
2023-05-14T21:52:26.850Z,37.35
2023-05-14T21:55:29.311Z,40.33
2023-05-14T21:58:31.565Z,35.17
2023-05-14T22:01:38.539Z,37.35
2023-05-14T22:04:48.066Z,33.47
2023-05-14T22:07:50.056Z,34.47
2023-05-14T22:10:52.048Z,32.05
2023-05-14T22:13:54.048Z,30.55
2023-05-14T22:16:57.034Z,36.22
2023-05-14T22:19:59.119Z,36.83
2023-05-14T22:23:01.291Z,32.60
2023-05-14T22:26:03.561Z,34.28
2023-05-14T22:29:05.651Z,32.13
2023-05-14T22:32:08.265Z,29.23
2023-05-14T22:35:11.249Z,29.20
2023-05-14T22:38:14.098Z,27.55
2023-05-14T22:41:17.616Z,33.50
2023-05-14T22:44:19.736Z,31.85
2023-05-14T22:47:21.862Z,24.42
2023-05-14T22:50:23.892Z,29.35
2023-05-14T22:53:25.848Z,24.58
2023-05-14T22:56:28.360Z,24.35
2023-05-14T22:59:30.403Z,24.58
2023-05-14T23:02:32.611Z,24.85
2023-05-14T23:05:34.744Z,25.00
2023-05-14T23:08:36.706Z,21.45
2023-05-14T23:11:38.740Z,21.52
2023-05-14T23:14:40.770Z,22.05
2023-05-14T23:17:42.867Z,33.30
2023-05-14T23:20:44.959Z,25.58
2023-05-14T23:23:48.525Z,22.70
2023-05-14T23:26:53.109Z,21.65
2023-05-14T23:29:55.116Z,19.50
2023-05-14T23:32:57.310Z,24.45
2023-05-14T23:35:59.397Z,20.45
2023-05-14T23:39:01.597Z,22.02
2023-05-14T23:42:03.670Z,20.20
2023-05-14T23:45:06.350Z,17.75
2023-05-14T23:48:08.569Z,18.45
2023-05-14T23:51:10.641Z,16.45
2023-05-14T23:54:12.664Z,16.75
2023-05-14T23:57:15.325Z,16.92
